Time;durP1;ratioP1;P1;durP2;ratioP2;P2;SDS_P1;SDS_P2;PMS_P1;PMS_P2;Temp;Humidity;BMP_temperature;BMP_pressure;BME280_temperature;BME280_humidity;BME280_pressure;Samples;Min_cycle;Max_cycle;Signal;HPM_P1;HPM_P2
2022/01/29 00:01:05;;;;;;;;;;;1.30;99.90;;;;;;4156304;28;19913;-63
2022/01/29 00:03:06;;;;;;;;;;;1.30;99.90;;;;;;4158388;28;19919;-63
2022/01/29 00:05:08;;;;;;;;;;;1.20;99.90;;;;;;4156937;28;20032;-62
2022/01/29 00:07:09;;;;;;;;;;;1.20;99.90;;;;;;4157487;28;20347;-65
2022/01/29 00:09:14;;;;;;;;;;;1.30;99.90;;;;;;4157108;28;19932;-57
2022/01/29 00:11:17;;;;;;;;;;;1.20;99.90;;;;;;4158100;28;19917;-63
2022/01/29 00:13:17;;;;;;;;;;;1.20;99.90;;;;;;4156837;28;19921;-59
2022/01/29 00:15:20;;;;;;;;;;;1.20;99.90;;;;;;4157289;28;19960;-57
2022/01/29 00:17:21;;;;;;;;;;;1.20;99.90;;;;;;4157362;28;19913;-53
2022/01/29 00:19:22;;;;;;;;;;;1.20;99.90;;;;;;4157018;28;20270;-53
2022/01/29 00:21:22;;;;;;;;;;;1.20;99.90;;;;;;4157813;28;20032;-59
2022/01/29 00:23:23;;;;;;;;;;;1.20;99.90;;;;;;4141138;28;20337;-57
2022/01/29 00:25:25;;;;;;;;;;;1.20;99.90;;;;;;4142515;28;19976;-55
2022/01/29 00:27:29;;;;;;;;;;;1.20;99.90;;;;;;4139905;28;19980;-55
2022/01/29 00:29:34;;;;;;;;;;;1.10;99.90;;;;;;4152954;28;19913;-56
2022/01/29 00:31:35;;;;;;;;;;;1.10;99.90;;;;;;4156368;28;19971;-53
2022/01/29 00:33:37;;;;;;;;;;;1.10;99.90;;;;;;4158550;28;19971;-53
2022/01/29 00:35:39;;;;;;;;;;;1.10;99.90;;;;;;4156907;28;19913;-59
2022/01/29 00:37:40;;;;;;;;;;;1.10;99.90;;;;;;4158143;28;20325;-56
2022/01/29 00:39:41;;;;;;;;;;;1.10;99.90;;;;;;4157156;28;19913;-57
2022/01/29 00:41:41;;;;;;;;;;;1.00;99.90;;;;;;4156533;28;19919;-57
2022/01/29 00:43:42;;;;;;;;;;;1.00;99.90;;;;;;4156399;28;20708;-55
2022/01/29 00:45:43;;;;;;;;;;;1.00;99.90;;;;;;4157001;28;20354;-57
2022/01/29 00:47:44;;;;;;;;;;;0.90;99.90;;;;;;4157415;28;20297;-55
2022/01/29 00:49:45;;;;;;;;;;;0.90;99.90;;;;;;4156655;28;20013;-58
2022/01/29 00:51:46;;;;;;;;;;;0.90;99.90;;;;;;4161196;28;19949;-55
2022/01/29 00:53:47;;;;;;;;;;;0.90;99.90;;;;;;4160313;28;19921;-58
2022/01/29 00:55:48;;;;;;;;;;;0.90;99.90;;;;;;4161200;28;20372;-53
2022/01/29 00:57:49;;;;;;;;;;;0.90;99.90;;;;;;4158836;28;19928;-55
2022/01/29 00:59:50;;;;;;;;;;;0.90;99.90;;;;;;4160643;28;19921;-61
2022/01/29 01:01:51;;;;;;;;;;;0.80;99.90;;;;;;4141939;28;20318;-59
2022/01/29 01:03:52;;;;;;;;;;;0.80;99.90;;;;;;4143426;28;20369;-51
2022/01/29 01:05:53;;;;;;;;;;;0.80;99.90;;;;;;4159483;28;19914;-54
2022/01/29 01:07:54;;;;;;;;;;;0.80;99.90;;;;;;4160691;28;19913;-59
2022/01/29 01:09:55;;;;;;;;;;;0.80;99.90;;;;;;4159875;28;19928;-55
2022/01/29 01:11:56;;;;;;;;;;;0.70;99.90;;;;;;4159796;28;20393;-51
2022/01/29 01:13:56;;;;;;;;;;;0.70;99.90;;;;;;4159188;28;19921;-58
2022/01/29 01:15:57;;;;;;;;;;;0.70;99.90;;;;;;4159350;28;19921;-58
2022/01/29 01:17:58;;;;;;;;;;;0.70;99.90;;;;;;4160290;28;20432;-60
2022/01/29 01:19:59;;;;;;;;;;;0.60;99.90;;;;;;4159627;28;19909;-54
2022/01/29 01:22:00;;;;;;;;;;;0.60;99.90;;;;;;4160926;28;19917;-55
2022/01/29 01:24:01;;;;;;;;;;;0.60;99.90;;;;;;4159769;28;20331;-55
2022/01/29 01:26:03;;;;;;;;;;;0.60;99.90;;;;;;4161281;28;19909;-55
2022/01/29 01:28:04;;;;;;;;;;;0.50;99.90;;;;;;4159640;28;19917;-57
2022/01/29 01:30:05;;;;;;;;;;;0.50;99.90;;;;;;4160438;28;19939;-56
2022/01/29 01:32:10;;;;;;;;;;;0.50;99.90;;;;;;4159768;28;19913;-54
2022/01/29 01:34:12;;;;;;;;;;;0.50;99.90;;;;;;4160703;28;19925;-54
2022/01/29 01:36:15;;;;;;;;;;;0.40;99.90;;;;;;4159089;28;19909;-55
2022/01/29 01:40:19;;;;;;;;;;;0.40;99.90;;;;;;4159637;28;20016;-50
2022/01/29 01:42:20;;;;;;;;;;;0.40;99.90;;;;;;4160104;28;19917;-54
2022/01/29 01:44:21;;;;;;;;;;;0.40;99.90;;;;;;4158879;28;19909;-59
2022/01/29 01:46:21;;;;;;;;;;;0.40;99.90;;;;;;4159751;28;19913;-55
2022/01/29 01:48:22;;;;;;;;;;;0.30;99.90;;;;;;4158971;28;19925;-55
2022/01/29 01:50:24;;;;;;;;;;;0.40;99.90;;;;;;4159042;28;19967;-58
2022/01/29 01:52:25;;;;;;;;;;;0.40;99.90;;;;;;4159805;28;20431;-59
2022/01/29 01:54:25;;;;;;;;;;;0.40;99.90;;;;;;4159144;28;19914;-51
2022/01/29 01:56:26;;;;;;;;;;;0.40;99.90;;;;;;4160936;28;19936;-58
2022/01/29 01:58:27;;;;;;;;;;;0.30;99.90;;;;;;4158637;28;19917;-57
2022/01/29 02:00:28;;;;;;;;;;;0.40;99.90;;;;;;4160194;28;20332;-65
2022/01/29 02:02:29;;;;;;;;;;;0.40;99.90;;;;;;4157538;28;19913;-62
2022/01/29 02:04:31;;;;;;;;;;;0.40;99.90;;;;;;4160077;28;19917;-58
2022/01/29 02:06:32;;;;;;;;;;;0.40;99.90;;;;;;4159279;28;20770;-61
2022/01/29 02:08:33;;;;;;;;;;;0.40;99.90;;;;;;4160240;28;19913;-62
2022/01/29 02:10:34;;;;;;;;;;;0.40;99.90;;;;;;4158934;28;19919;-62
2022/01/29 02:12:51;;;;;;;;;;;0.40;99.90;;;;;;4159444;28;19917;-57
2022/01/29 02:14:53;;;;;;;;;;;0.40;99.90;;;;;;4158821;28;19917;-60
2022/01/29 02:16:54;;;;;;;;;;;0.40;99.90;;;;;;4158661;28;20352;-63
2022/01/29 02:18:55;;;;;;;;;;;0.40;99.90;;;;;;4159077;28;20368;-57
2022/01/29 02:20:58;;;;;;;;;;;0.50;99.90;;;;;;4159027;28;19920;-63
2022/01/29 02:23:00;;;;;;;;;;;0.50;99.90;;;;;;4147359;28;19980;-57
2022/01/29 02:25:01;;;;;;;;;;;0.50;99.90;;;;;;4141956;28;19959;-61
2022/01/29 02:27:02;;;;;;;;;;;0.50;99.90;;;;;;4143631;28;19920;-61
2022/01/29 02:29:03;;;;;;;;;;;0.40;99.90;;;;;;4142038;28;19921;-61
2022/01/29 02:31:04;;;;;;;;;;;0.50;99.90;;;;;;4142888;28;19920;-56
2022/01/29 02:33:08;;;;;;;;;;;0.40;99.90;;;;;;4157477;28;19944;-57
2022/01/29 02:35:08;;;;;;;;;;;0.40;99.90;;;;;;4159433;28;19963;-60
2022/01/29 02:37:09;;;;;;;;;;;0.50;99.90;;;;;;4158377;28;20373;-56
2022/01/29 02:39:11;;;;;;;;;;;0.40;99.90;;;;;;4160104;28;19913;-55
2022/01/29 02:41:12;;;;;;;;;;;0.40;99.90;;;;;;4158270;28;19917;-53
2022/01/29 02:43:18;;;;;;;;;;;0.40;99.90;;;;;;4159455;28;20313;-63
2022/01/29 02:45:19;;;;;;;;;;;0.40;99.90;;;;;;4157719;28;19917;-62
2022/01/29 02:47:30;;;;;;;;;;;0.40;99.90;;;;;;4159311;28;19917;-64
2022/01/29 02:49:31;;;;;;;;;;;0.40;99.90;;;;;;4158072;28;19991;-61
2022/01/29 02:51:31;;;;;;;;;;;0.40;99.90;;;;;;4159542;28;20856;-61
2022/01/29 02:53:32;;;;;;;;;;;0.40;99.90;;;;;;4157764;28;19921;-60
2022/01/29 02:55:33;;;;;;;;;;;0.40;99.90;;;;;;4158952;28;19938;-60
2022/01/29 02:57:34;;;;;;;;;;;0.40;99.90;;;;;;4158902;28;20494;-60
2022/01/29 02:59:35;;;;;;;;;;;0.40;99.90;;;;;;4158093;28;19921;-62
2022/01/29 03:01:36;;;;;;;;;;;0.40;99.90;;;;;;4159250;28;20285;-58
2022/01/29 03:03:37;;;;;;;;;;;0.30;99.90;;;;;;4157237;28;19913;-59
2022/01/29 03:05:38;;;;;;;;;;;0.40;99.90;;;;;;4158858;28;19944;-62
2022/01/29 03:07:39;;;;;;;;;;;0.40;99.90;;;;;;4158381;28;19920;-63
2022/01/29 03:09:39;;;;;;;;;;;0.40;99.90;;;;;;4158946;28;19917;-58
2022/01/29 03:11:40;;;;;;;;;;;0.50;99.90;;;;;;4157756;28;19913;-63
2022/01/29 03:13:41;;;;;;;;;;;0.50;99.90;;;;;;4158226;28;19913;-55
2022/01/29 03:15:42;;;;;;;;;;;0.50;99.90;;;;;;4157429;28;19928;-60
2022/01/29 03:17:43;;;;;;;;;;;0.50;99.90;;;;;;4159162;28;19913;-62
2022/01/29 03:19:44;;;;;;;;;;;0.50;99.90;;;;;;4157464;28;19917;-57
2022/01/29 03:21:45;;;;;;;;;;;0.50;99.90;;;;;;4158492;28;19913;-61
2022/01/29 03:23:46;;;;;;;;;;;0.50;99.90;;;;;;4157692;28;19910;-57
2022/01/29 03:25:47;;;;;;;;;;;0.40;99.90;;;;;;4158179;28;20328;-59
2022/01/29 03:27:48;;;;;;;;;;;0.50;99.90;;;;;;4157981;28;20011;-55
2022/01/29 03:29:49;;;;;;;;;;;0.50;99.90;;;;;;4157462;28;20340;-53
2022/01/29 03:31:50;;;;;;;;;;;0.40;99.90;;;;;;4158409;28;19913;-55
2022/01/29 03:33:51;;;;;;;;;;;0.40;99.90;;;;;;4157254;28;20794;-60
2022/01/29 03:35:52;;;;;;;;;;;0.40;99.90;;;;;;4158763;28;19917;-54
2022/01/29 03:37:52;;;;;;;;;;;0.40;99.90;;;;;;4157002;28;19917;-53
2022/01/29 03:39:58;;;;;;;;;;;0.40;99.90;;;;;;4158741;28;19909;-55
2022/01/29 03:42:03;;;;;;;;;;;0.40;99.90;;;;;;4157202;28;20365;-57
2022/01/29 03:44:07;;;;;;;;;;;0.40;99.90;;;;;;4158431;28;19916;-53
2022/01/29 03:46:08;;;;;;;;;;;0.40;99.90;;;;;;4156738;28;19959;-59
2022/01/29 03:48:09;;;;;;;;;;;0.30;99.90;;;;;;4158302;28;20556;-53
2022/01/29 03:50:10;;;;;;;;;;;0.30;99.90;;;;;;4139522;28;19940;-53
2022/01/29 03:52:11;;;;;;;;;;;0.30;99.90;;;;;;4158786;28;19918;-57
2022/01/29 03:54:12;;;;;;;;;;;0.30;99.90;;;;;;4157293;28;19930;-54
2022/01/29 03:56:13;;;;;;;;;;;0.20;99.90;;;;;;4158581;28;19912;-56
2022/01/29 03:58:14;;;;;;;;;;;0.20;99.90;;;;;;4157909;28;19967;-59
2022/01/29 04:00:15;;;;;;;;;;;0.20;99.90;;;;;;4156797;28;19917;-56
2022/01/29 04:02:16;;;;;;;;;;;0.10;99.90;;;;;;4158098;28;19943;-54
2022/01/29 04:04:17;;;;;;;;;;;0.10;99.90;;;;;;4157230;28;19913;-55
2022/01/29 04:06:18;;;;;;;;;;;0.10;99.90;;;;;;4158175;28;19917;-59
2022/01/29 04:08:19;;;;;;;;;;;0.00;99.90;;;;;;4156614;28;19948;-54
2022/01/29 04:10:22;;;;;;;;;;;0.00;99.90;;;;;;4158597;28;19955;-56
2022/01/29 04:12:25;;;;;;;;;;;0.00;99.90;;;;;;4156359;28;20324;-50
2022/01/29 04:14:32;;;;;;;;;;;0.00;99.90;;;;;;4158360;28;19995;-57
2022/01/29 04:16:33;;;;;;;;;;;-0.10;99.90;;;;;;4157097;28;20324;-51
2022/01/29 04:18:34;;;;;;;;;;;-0.10;99.90;;;;;;4158014;28;19913;-57
2022/01/29 04:20:35;;;;;;;;;;;-0.10;99.90;;;;;;4157344;28;20691;-56
2022/01/29 04:22:36;;;;;;;;;;;-0.20;99.90;;;;;;4158113;28;19956;-57
2022/01/29 04:24:37;;;;;;;;;;;-0.20;99.90;;;;;;4156719;28;19917;-57
2022/01/29 04:26:38;;;;;;;;;;;-0.20;99.90;;;;;;4158092;28;19913;-58
2022/01/29 04:28:40;;;;;;;;;;;-0.20;99.90;;;;;;4157153;28;19909;-56
2022/01/29 04:30:47;;;;;;;;;;;-0.30;99.90;;;;;;4156994;28;20591;-57
2022/01/29 04:34:49;;;;;;;;;;;-0.30;99.90;;;;;;4157355;28;20770;-57
2022/01/29 04:36:50;;;;;;;;;;;-0.40;99.90;;;;;;4157396;28;20361;-58
2022/01/29 04:38:51;;;;;;;;;;;-0.40;99.90;;;;;;4157078;28;19920;-60
2022/01/29 04:40:52;;;;;;;;;;;-0.50;99.90;;;;;;4157954;28;19932;-53
2022/01/29 04:42:53;;;;;;;;;;;-0.50;99.90;;;;;;4156530;28;19913;-56
2022/01/29 04:44:54;;;;;;;;;;;-0.60;99.90;;;;;;4157781;28;19929;-59
2022/01/29 04:46:55;;;;;;;;;;;-0.60;99.90;;;;;;4156413;28;19921;-62
2022/01/29 04:48:56;;;;;;;;;;;-0.60;99.90;;;;;;4157524;28;20359;-58
2022/01/29 04:50:57;;;;;;;;;;;-0.60;99.90;;;;;;4156590;28;20262;-61
2022/01/29 04:52:58;;;;;;;;;;;-0.70;99.90;;;;;;4158288;28;19909;-63
2022/01/29 04:54:59;;;;;;;;;;;-0.70;99.90;;;;;;4156597;28;19921;-58
2022/01/29 04:57:00;;;;;;;;;;;-0.70;99.90;;;;;;4157776;28;19943;-58
2022/01/29 04:59:01;;;;;;;;;;;-0.70;99.90;;;;;;4156401;28;19921;-59
2022/01/29 05:01:03;;;;;;;;;;;-0.70;99.90;;;;;;4157165;28;19917;-58
2022/01/29 05:03:08;;;;;;;;;;;-0.80;99.90;;;;;;4157275;28;19913;-56
2022/01/29 05:05:09;;;;;;;;;;;-0.80;99.90;;;;;;4156837;28;19917;-53
2022/01/29 05:07:10;;;;;;;;;;;-0.80;99.90;;;;;;4156351;28;19916;-55
2022/01/29 05:09:11;;;;;;;;;;;-0.80;99.90;;;;;;4156609;28;19928;-53
2022/01/29 05:11:14;;;;;;;;;;;-0.90;99.90;;;;;;4157103;28;19997;-55
2022/01/29 05:13:20;;;;;;;;;;;-1.00;99.90;;;;;;4156101;28;19913;-54
2022/01/29 05:29:11;;;;;;;;;;;-1.00;99.90;;;;;;4104847;28;19973;-63
2022/01/29 05:31:12;;;;;;;;;;;-1.00;99.90;;;;;;4133246;28;19943;-62
2022/01/29 05:33:13;;;;;;;;;;;-1.00;99.90;;;;;;4156603;28;19932;-63
2022/01/29 05:35:14;;;;;;;;;;;-1.00;99.90;;;;;;4156712;28;19967;-61
2022/01/29 05:37:14;;;;;;;;;;;-1.10;99.90;;;;;;4157619;28;19913;-61
2022/01/29 05:39:16;;;;;;;;;;;-1.00;99.90;;;;;;4159146;28;20373;-59
2022/01/29 05:41:17;;;;;;;;;;;-1.10;99.90;;;;;;4160580;28;19917;-58
2022/01/29 05:43:18;;;;;;;;;;;-1.10;99.90;;;;;;4159337;28;19963;-61
2022/01/29 05:45:18;;;;;;;;;;;-1.20;99.90;;;;;;4159907;28;19921;-60
2022/01/29 05:47:19;;;;;;;;;;;-1.20;99.90;;;;;;4158929;28;20008;-58
2022/01/29 05:49:20;;;;;;;;;;;-1.20;99.90;;;;;;4160571;28;20354;-60
2022/01/29 05:51:21;;;;;;;;;;;-1.20;99.90;;;;;;4158826;28;19953;-56
2022/01/29 05:53:22;;;;;;;;;;;-1.20;99.90;;;;;;4160747;28;19913;-56
2022/01/29 05:55:23;;;;;;;;;;;-1.20;99.90;;;;;;4158419;28;19921;-58
2022/01/29 05:57:24;;;;;;;;;;;-1.20;99.90;;;;;;4159722;28;19913;-55
2022/01/29 05:59:25;;;;;;;;;;;-1.30;99.90;;;;;;4159023;28;19923;-58
2022/01/29 06:01:26;;;;;;;;;;;-1.20;99.90;;;;;;4159015;28;19963;-59
2022/01/29 06:03:27;;;;;;;;;;;-1.30;99.90;;;;;;4153857;28;19963;-51
2022/01/29 06:05:28;;;;;;;;;;;-1.20;99.90;;;;;;4158172;28;19913;-54
2022/01/29 06:07:29;;;;;;;;;;;-1.20;99.90;;;;;;4159647;28;19917;-62
2022/01/29 06:09:30;;;;;;;;;;;-1.20;99.90;;;;;;4158426;28;19919;-60
2022/01/29 06:11:32;;;;;;;;;;;-1.10;99.90;;;;;;4159522;28;19971;-62
2022/01/29 06:13:33;;;;;;;;;;;-1.00;99.90;;;;;;4157997;28;20531;-63
2022/01/29 06:15:38;;;;;;;;;;;-0.90;99.90;;;;;;4160125;28;19913;-63
2022/01/29 06:17:39;;;;;;;;;;;-0.70;99.90;;;;;;4156917;28;19917;-61
2022/01/29 06:19:40;;;;;;;;;;;-0.30;99.90;;;;;;4167035;28;19912;-61
2022/01/29 06:21:41;;;;;;;;;;;-0.20;99.90;;;;;;4173885;28;19923;-61
2022/01/29 06:23:43;;;;;;;;;;;-0.10;99.90;;;;;;4168412;28;19924;-63
2022/01/29 06:25:44;;;;;;;;;;;-0.10;99.90;;;;;;4158110;28;19917;-62
2022/01/29 06:27:45;;;;;;;;;;;-0.10;99.90;;;;;;4159598;28;19963;-59
2022/01/29 06:29:46;;;;;;;;;;;0.00;99.90;;;;;;4156990;28;19913;-59
2022/01/29 06:31:49;;;;;;;;;;;-0.10;99.90;;;;;;4158456;28;19957;-59
2022/01/29 06:33:50;;;;;;;;;;;-0.20;99.90;;;;;;4157951;28;19925;-57
2022/01/29 06:35:51;;;;;;;;;;;-0.20;99.90;;;;;;4158429;28;20345;-63
2022/01/29 06:37:52;;;;;;;;;;;-0.30;99.90;;;;;;4142458;28;19913;-53
2022/01/29 06:39:53;;;;;;;;;;;-0.30;99.90;;;;;;4141246;28;20007;-55
2022/01/29 06:41:54;;;;;;;;;;;-0.30;99.90;;;;;;4142887;28;19909;-62
2022/01/29 06:43:55;;;;;;;;;;;-0.30;99.90;;;;;;4140790;28;20365;-56
2022/01/29 06:45:56;;;;;;;;;;;-0.30;99.90;;;;;;4155679;28;19917;-54
2022/01/29 06:47:57;;;;;;;;;;;-0.20;99.90;;;;;;4157373;28;19920;-60
2022/01/29 06:49:58;;;;;;;;;;;-0.20;99.90;;;;;;4159279;28;20160;-59
2022/01/29 06:51:59;;;;;;;;;;;-0.10;99.90;;;;;;4157906;28;19917;-59
2022/01/29 06:54:00;;;;;;;;;;;0.00;99.90;;;;;;4158452;28;19943;-59
2022/01/29 06:56:01;;;;;;;;;;;0.10;99.90;;;;;;4157579;28;19920;-56
2022/01/29 06:58:01;;;;;;;;;;;0.20;99.90;;;;;;4158853;28;19909;-60
2022/01/29 07:00:03;;;;;;;;;;;0.30;99.90;;;;;;4157477;28;19916;-60
2022/01/29 07:02:04;;;;;;;;;;;0.40;99.90;;;;;;4156861;28;19971;-58
2022/01/29 07:04:05;;;;;;;;;;;0.50;99.90;;;;;;4157887;28;20332;-57
2022/01/29 07:06:06;;;;;;;;;;;0.60;99.90;;;;;;4156884;28;19913;-59
2022/01/29 07:08:07;;;;;;;;;;;0.60;99.90;;;;;;4158196;28;19909;-60
2022/01/29 07:10:09;;;;;;;;;;;0.90;99.90;;;;;;4156931;28;19917;-62
2022/01/29 07:12:10;;;;;;;;;;;0.80;99.90;;;;;;4159002;28;19917;-61
2022/01/29 07:14:16;;;;;;;;;;;0.80;99.90;;;;;;4157248;28;19952;-58
2022/01/29 07:16:17;;;;;;;;;;;0.80;99.90;;;;;;4158858;28;19925;-59
2022/01/29 07:18:18;;;;;;;;;;;0.80;99.90;;;;;;4156758;28;19914;-56
2022/01/29 07:20:19;;;;;;;;;;;1.00;99.90;;;;;;4158212;28;19920;-62
2022/01/29 07:22:20;;;;;;;;;;;1.00;99.90;;;;;;4156231;28;19913;-63
2022/01/29 07:24:21;;;;;;;;;;;1.00;99.90;;;;;;4157985;28;19917;-59
2022/01/29 07:26:22;;;;;;;;;;;1.00;99.90;;;;;;4149372;28;19913;-62
2022/01/29 07:28:23;;;;;;;;;;;0.90;99.90;;;;;;4150212;28;19924;-61
2022/01/29 07:30:25;;;;;;;;;;;0.80;99.90;;;;;;4144784;28;19917;-59
2022/01/29 07:32:25;;;;;;;;;;;0.80;99.90;;;;;;4157274;28;19917;-59
2022/01/29 07:34:27;;;;;;;;;;;0.90;99.90;;;;;;4157174;28;19925;-57
2022/01/29 07:36:28;;;;;;;;;;;0.80;99.90;;;;;;4156716;28;19990;-55
2022/01/29 07:38:29;;;;;;;;;;;0.70;99.90;;;;;;4157912;28;19927;-62
2022/01/29 07:40:29;;;;;;;;;;;0.70;99.90;;;;;;4145686;28;19917;-61
2022/01/29 07:42:30;;;;;;;;;;;0.60;99.90;;;;;;4156643;28;20032;-57
2022/01/29 07:44:31;;;;;;;;;;;0.70;99.90;;;;;;4156107;28;19913;-59
2022/01/29 07:46:32;;;;;;;;;;;0.70;99.90;;;;;;4156865;28;20003;-60
2022/01/29 07:48:33;;;;;;;;;;;0.90;99.90;;;;;;4155759;28;19920;-56
2022/01/29 07:50:34;;;;;;;;;;;1.20;99.90;;;;;;4157053;28;19931;-58
2022/01/29 07:52:35;;;;;;;;;;;1.20;99.90;;;;;;4155487;28;19917;-56
2022/01/29 07:54:36;;;;;;;;;;;1.10;99.90;;;;;;4157146;28;19979;-56
2022/01/29 07:56:37;;;;;;;;;;;1.00;99.90;;;;;;4156768;28;19913;-53
2022/01/29 07:58:38;;;;;;;;;;;0.90;99.90;;;;;;4157825;28;19920;-55
2022/01/29 08:00:39;;;;;;;;;;;0.80;99.90;;;;;;4155146;28;19909;-59
2022/01/29 08:02:40;;;;;;;;;;;0.70;99.90;;;;;;4157394;28;19913;-63
2022/01/29 08:04:41;;;;;;;;;;;0.60;99.90;;;;;;4156239;28;19940;-54
2022/01/29 08:06:42;;;;;;;;;;;0.50;99.90;;;;;;4156701;28;19921;-62
2022/01/29 08:08:43;;;;;;;;;;;0.40;99.90;;;;;;4157221;28;19913;-67
2022/01/29 08:10:44;;;;;;;;;;;0.40;99.90;;;;;;4156673;28;20400;-64
2022/01/29 08:12:44;;;;;;;;;;;0.40;99.90;;;;;;4157502;28;19955;-65
2022/01/29 08:14:45;;;;;;;;;;;0.40;99.90;;;;;;4156235;28;19921;-58
2022/01/29 08:16:46;;;;;;;;;;;0.40;99.90;;;;;;4157953;28;20563;-63
2022/01/29 08:18:47;;;;;;;;;;;0.40;99.90;;;;;;4156540;28;19913;-64
2022/01/29 08:20:48;;;;;;;;;;;0.30;99.90;;;;;;4156854;28;20661;-55
2022/01/29 08:22:49;;;;;;;;;;;0.40;99.90;;;;;;4156483;28;20920;-61
2022/01/29 08:24:52;;;;;;;;;;;0.40;99.90;;;;;;4157516;28;19967;-63
2022/01/29 08:26:53;;;;;;;;;;;0.40;99.90;;;;;;4155929;28;19961;-56
2022/01/29 08:28:53;;;;;;;;;;;0.40;99.90;;;;;;4157264;28;20288;-59
2022/01/29 08:30:54;;;;;;;;;;;0.50;99.90;;;;;;4156270;28;19905;-60
2022/01/29 08:32:55;;;;;;;;;;;0.60;99.90;;;;;;4157642;28;20035;-67
2022/01/29 08:34:56;;;;;;;;;;;0.50;99.90;;;;;;4156978;28;20373;-60
2022/01/29 08:37:01;;;;;;;;;;;0.40;99.90;;;;;;4147561;28;19959;-65
2022/01/29 08:39:02;;;;;;;;;;;0.40;99.90;;;;;;4155401;28;19959;-57
2022/01/29 08:41:04;;;;;;;;;;;0.30;99.90;;;;;;4156277;28;19921;-64
2022/01/29 08:43:05;;;;;;;;;;;0.30;99.90;;;;;;4157822;28;19913;-58
2022/01/29 08:45:07;;;;;;;;;;;0.40;99.90;;;;;;4155842;28;20030;-69
2022/01/29 08:47:08;;;;;;;;;;;0.30;99.90;;;;;;4157299;28;19921;-66
2022/01/29 08:49:09;;;;;;;;;;;0.40;99.90;;;;;;4156420;28;20020;-68
2022/01/29 08:51:10;;;;;;;;;;;0.40;99.90;;;;;;4157424;28;19975;-60
2022/01/29 08:53:11;;;;;;;;;;;0.40;99.90;;;;;;4156115;28;20364;-68
2022/01/29 08:55:12;;;;;;;;;;;0.40;99.90;;;;;;4157496;28;19921;-64
2022/01/29 08:57:13;;;;;;;;;;;0.30;99.90;;;;;;4156137;28;19917;-66
2022/01/29 08:59:14;;;;;;;;;;;0.50;99.90;;;;;;4156602;28;20306;-64
2022/01/29 09:01:15;;;;;;;;;;;0.50;99.90;;;;;;4156039;28;19936;-65
2022/01/29 09:03:16;;;;;;;;;;;0.50;99.90;;;;;;4157000;28;19913;-67
2022/01/29 09:05:18;;;;;;;;;;;0.70;99.90;;;;;;4156362;28;20421;-64
2022/01/29 09:07:19;;;;;;;;;;;1.00;99.90;;;;;;4156097;28;19956;-65
2022/01/29 09:09:24;;;;;;;;;;;1.30;99.90;;;;;;4156918;28;19925;-66
2022/01/29 09:11:25;;;;;;;;;;;1.40;99.90;;;;;;4156094;28;20429;-65
2022/01/29 09:13:27;;;;;;;;;;;1.40;99.90;;;;;;4159369;28;19913;-66
2022/01/29 09:15:27;;;;;;;;;;;1.40;99.90;;;;;;4158648;28;19917;-66
2022/01/29 09:17:28;;;;;;;;;;;1.30;99.90;;;;;;4160349;28;19920;-68
2022/01/29 09:19:29;;;;;;;;;;;1.10;99.90;;;;;;4159520;28;19913;-68
2022/01/29 09:21:30;;;;;;;;;;;1.00;99.90;;;;;;4160209;28;19924;-64
2022/01/29 09:23:31;;;;;;;;;;;0.90;99.90;;;;;;4159329;28;20412;-63
2022/01/29 09:25:35;;;;;;;;;;;0.90;99.90;;;;;;4160224;28;19917;-64
2022/01/29 09:27:36;;;;;;;;;;;0.90;99.90;;;;;;4159127;28;19913;-61
2022/01/29 09:29:37;;;;;;;;;;;0.90;99.90;;;;;;4160242;28;20649;-59
2022/01/29 09:31:38;;;;;;;;;;;1.00;99.90;;;;;;4158385;28;19909;-59
2022/01/29 09:33:39;;;;;;;;;;;1.00;99.90;;;;;;4159210;28;20028;-55
2022/01/29 09:35:40;;;;;;;;;;;1.10;99.90;;;;;;4159086;28;19920;-56
2022/01/29 09:37:41;;;;;;;;;;;1.10;99.90;;;;;;4143567;28;20717;-57
2022/01/29 09:39:42;;;;;;;;;;;0.90;99.90;;;;;;4145718;28;19924;-57
2022/01/29 09:41:44;;;;;;;;;;;1.00;99.90;;;;;;4161722;28;19913;-67
2022/01/29 09:43:46;;;;;;;;;;;1.00;99.90;;;;;;4176212;28;19932;-63
2022/01/29 09:45:49;;;;;;;;;;;0.90;99.90;;;;;;4175622;28;19943;-59
2022/01/29 09:47:51;;;;;;;;;;;0.80;99.90;;;;;;4176200;28;20541;-61
2022/01/29 09:49:52;;;;;;;;;;;0.80;99.90;;;;;;4173909;28;19962;-50
2022/01/29 09:51:53;;;;;;;;;;;0.70;99.90;;;;;;4176501;28;19913;-62
2022/01/29 09:53:54;;;;;;;;;;;0.70;99.90;;;;;;4174582;28;19917;-63
2022/01/29 09:55:55;;;;;;;;;;;0.50;99.90;;;;;;4159502;28;19991;-64
2022/01/29 09:57:56;;;;;;;;;;;0.60;99.90;;;;;;4159131;28;19963;-60
2022/01/29 09:59:57;;;;;;;;;;;0.60;99.90;;;;;;4159221;28;19917;-50
2022/01/29 10:01:58;;;;;;;;;;;0.60;99.90;;;;;;4156816;28;19913;-62
2022/01/29 10:04:03;;;;;;;;;;;0.60;99.90;;;;;;4158722;28;19913;-55
2022/01/29 10:06:04;;;;;;;;;;;0.70;99.90;;;;;;4158833;28;19913;-61
2022/01/29 10:08:06;;;;;;;;;;;0.70;99.90;;;;;;4156036;28;19921;-54
2022/01/29 10:10:17;;;;;;;;;;;0.70;99.90;;;;;;4155258;28;19920;-62
2022/01/29 10:12:23;;;;;;;;;;;0.80;99.90;;;;;;4154988;28;19920;-67
2022/01/29 10:14:24;;;;;;;;;;;0.80;99.90;;;;;;4153842;28;19925;-57
2022/01/29 10:16:25;;;;;;;;;;;0.80;99.90;;;;;;4152813;28;19944;-68
2022/01/29 10:18:26;;;;;;;;;;;0.80;99.90;;;;;;4152997;28;20373;-61
2022/01/29 10:20:28;;;;;;;;;;;0.80;99.90;;;;;;4152098;28;19923;-63
2022/01/29 10:22:33;;;;;;;;;;;0.70;99.90;;;;;;4157053;28;19921;-61
2022/01/29 10:24:48;;;;;;;;;;;0.70;99.90;;;;;;4156598;28;19917;-64
2022/01/29 10:26:50;;;;;;;;;;;0.70;99.90;;;;;;4158858;28;19921;-70
2022/01/29 10:28:54;;;;;;;;;;;0.80;99.90;;;;;;4157398;28;19955;-55
2022/01/29 10:30:57;;;;;;;;;;;0.80;99.90;;;;;;4166321;28;19917;-70
2022/01/29 10:33:19;;;;;;;;;;;0.80;99.90;;;;;;4157350;28;19974;-58
2022/01/29 10:35:20;;;;;;;;;;;0.80;99.90;;;;;;4158669;28;20011;-59
2022/01/29 10:37:23;;;;;;;;;;;0.80;99.90;;;;;;4156686;28;19913;-57
2022/01/29 10:39:30;;;;;;;;;;;0.80;99.90;;;;;;4158948;28;19989;-58
2022/01/29 10:41:31;;;;;;;;;;;0.80;99.90;;;;;;4157493;28;20896;-68
2022/01/29 10:43:33;;;;;;;;;;;0.80;99.90;;;;;;4158564;28;19963;-61
2022/01/29 10:45:34;;;;;;;;;;;0.70;99.90;;;;;;4157449;28;19953;-56
2022/01/29 10:47:54;;;;;;;;;;;0.80;99.90;;;;;;4158892;28;19925;-58
2022/01/29 10:50:02;;;;;;;;;;;0.80;99.90;;;;;;4156773;28;19975;-59
2022/01/29 10:52:03;;;;;;;;;;;0.80;99.90;;;;;;4158226;28;19979;-60
2022/01/29 10:54:18;;;;;;;;;;;0.80;99.90;;;;;;4156898;28;19913;-63
2022/01/29 10:56:19;;;;;;;;;;;0.80;99.90;;;;;;4158945;28;19921;-62
2022/01/29 10:58:20;;;;;;;;;;;0.70;99.90;;;;;;4157753;28;19913;-60
2022/01/29 11:00:23;;;;;;;;;;;0.70;99.90;;;;;;4158507;28;20487;-60
2022/01/29 11:02:27;;;;;;;;;;;0.70;99.90;;;;;;4157510;28;20384;-68
2022/01/29 11:04:29;;;;;;;;;;;0.70;99.90;;;;;;4157800;28;19939;-57
2022/01/29 11:06:34;;;;;;;;;;;0.70;99.90;;;;;;4157692;28;19913;-59
2022/01/29 11:08:38;;;;;;;;;;;0.80;99.90;;;;;;4157807;28;19975;-53
2022/01/29 11:10:39;;;;;;;;;;;0.80;99.90;;;;;;4158007;28;19984;-61
2022/01/29 11:12:44;;;;;;;;;;;0.80;99.90;;;;;;4157255;28;20334;-57
2022/01/29 11:14:45;;;;;;;;;;;0.80;99.90;;;;;;4158149;28;19918;-63
2022/01/29 11:16:47;;;;;;;;;;;0.80;99.90;;;;;;4157293;28;19959;-61
2022/01/29 11:18:48;;;;;;;;;;;0.80;99.90;;;;;;4158838;28;19919;-63
2022/01/29 11:20:49;;;;;;;;;;;0.90;99.90;;;;;;4157015;28;19915;-57
2022/01/29 11:22:50;;;;;;;;;;;0.90;99.90;;;;;;4158613;28;20291;-60
2022/01/29 11:24:58;;;;;;;;;;;0.90;99.90;;;;;;4156514;28;19912;-59
2022/01/29 11:26:59;;;;;;;;;;;0.90;99.90;;;;;;4158554;28;20324;-58
2022/01/29 11:29:19;;;;;;;;;;;0.90;99.90;;;;;;4157320;28;19913;-62
2022/01/29 11:31:20;;;;;;;;;;;0.90;99.90;;;;;;4158268;28;19913;-62
2022/01/29 11:33:21;;;;;;;;;;;0.90;99.90;;;;;;4156530;28;19917;-55
2022/01/29 11:35:22;;;;;;;;;;;1.00;99.90;;;;;;4156484;28;19980;-58
2022/01/29 11:37:44;;;;;;;;;;;1.10;99.90;;;;;;4156811;28;19913;-61
2022/01/29 11:39:44;;;;;;;;;;;1.20;99.90;;;;;;4147333;28;20258;-55
2022/01/29 11:42:06;;;;;;;;;;;1.30;99.90;;;;;;4156250;28;20453;-58
2022/01/29 11:44:26;;;;;;;;;;;1.30;99.90;;;;;;4157308;28;19982;-57
2022/01/29 11:46:32;;;;;;;;;;;1.40;99.90;;;;;;4157185;28;19967;-59
2022/01/29 11:48:39;;;;;;;;;;;1.50;99.90;;;;;;4157978;28;19925;-58
2022/01/29 11:50:43;;;;;;;;;;;1.60;99.90;;;;;;4156576;28;19943;-57
2022/01/29 11:52:58;;;;;;;;;;;1.70;99.90;;;;;;4158192;28;19991;-63
2022/01/29 11:55:03;;;;;;;;;;;1.70;99.90;;;;;;4156006;28;19921;-60
2022/01/29 11:57:06;;;;;;;;;;;1.70;99.90;;;;;;4157373;28;20350;-59
2022/01/29 11:59:20;;;;;;;;;;;1.70;99.90;;;;;;4156121;28;19933;-61
2022/01/29 12:01:30;;;;;;;;;;;1.70;99.90;;;;;;4157497;28;19973;-62
2022/01/29 12:03:39;;;;;;;;;;;1.70;99.90;;;;;;4156528;28;19913;-57
2022/01/29 12:05:58;;;;;;;;;;;1.70;99.90;;;;;;4155711;28;19909;-57
2022/01/29 12:08:13;;;;;;;;;;;1.70;99.90;;;;;;4156548;28;19975;-63
2022/01/29 12:10:14;;;;;;;;;;;1.70;99.60;;;;;;4157453;28;20580;-64
2022/01/29 12:12:24;;;;;;;;;;;1.70;99.20;;;;;;4156446;28;19959;-66
2022/01/29 12:14:25;;;;;;;;;;;1.60;99.20;;;;;;4157504;28;19975;-62
2022/01/29 12:16:44;;;;;;;;;;;1.60;98.80;;;;;;4156240;28;19921;-64
2022/01/29 12:18:45;;;;;;;;;;;1.70;99.00;;;;;;4155291;28;20016;-64